Terminal Aerodrome Forecast
Issued by NWS

Home | Current Version | Previous Version | Text Only | Print | Product List | Glossary On
Versions: 1 2 3 4 5 6 7 8 9 10 11 12 13 14 15
000
FTPA31 PHFO 080802 AAA
TAFHNY
TAF AMD
PHNY 080802Z 0808/0906 VRB06KT P6SM SCT004 SCT035 BKN100
      TEMPO 0808/0810 BKN004
     FM081500 VRB06KT P6SM VCSH SCT015 BKN025
     FM081800 VRB07KT 6SM -SHRA BR SCT007 BKN015
     FM090500 VRB04KT P6SM VCSH SCT015 BKN035=

USA.gov is the U.S. government's official web portal to all federal, state and local government web resources and services.